createdAt,value
2022-11-09T00:02:26.333Z,37.53
2022-11-09T00:05:29.984Z,37.22
2022-11-09T00:08:33.205Z,40.55
2022-11-09T00:11:37.975Z,42.10
2022-11-09T00:14:42.031Z,37.08
2022-11-09T00:17:45.064Z,41.42
2022-11-09T00:20:48.566Z,39.05
2022-11-09T00:23:52.518Z,38.58
2022-11-09T00:26:55.387Z,39.67
2022-11-09T00:29:58.403Z,38.35
2022-11-09T00:33:01.140Z,38.28
2022-11-09T00:36:11.701Z,32.70
2022-11-09T00:39:14.486Z,32.58
2022-11-09T00:42:17.557Z,36.28
2022-11-09T00:45:20.450Z,34.40
2022-11-09T00:48:23.767Z,36.10
2022-11-09T00:51:27.611Z,37.05
2022-11-09T00:54:30.941Z,34.85
2022-11-09T00:57:34.140Z,39.17
2022-11-09T01:00:37.483Z,36.20
2022-11-09T01:03:40.438Z,36.35
2022-11-09T01:06:43.531Z,35.05
2022-11-09T01:09:46.287Z,37.90
2022-11-09T01:12:49.292Z,38.40
2022-11-09T01:15:53.451Z,39.97
2022-11-09T01:18:57.725Z,41.23
2022-11-09T01:22:00.577Z,39.50
2022-11-09T01:25:05.074Z,37.10
2022-11-09T01:28:08.565Z,35.50
2022-11-09T01:31:14.779Z,35.22
2022-11-09T01:34:17.700Z,37.85
2022-11-09T01:37:21.463Z,39.03
2022-11-09T01:40:24.147Z,37.33
2022-11-09T01:43:28.612Z,38.38
2022-11-09T01:46:52.495Z,48.67
2022-11-09T01:49:59.078Z,38.10
2022-11-09T01:53:03.913Z,39.38
2022-11-09T01:56:09.346Z,41.25
2022-11-09T01:59:17.097Z,39.90
2022-11-09T02:02:20.330Z,44.47
2022-11-09T02:05:25.739Z,37.28
2022-11-09T02:08:29.019Z,44.03
2022-11-09T02:11:32.983Z,38.53
2022-11-09T02:14:36.770Z,39.40
2022-11-09T02:17:41.361Z,38.47
2022-11-09T02:20:46.965Z,35.80
2022-11-09T02:23:50.804Z,35.85
2022-11-09T02:26:54.502Z,34.65
2022-11-09T02:29:58.735Z,39.67
2022-11-09T02:33:02.830Z,38.47
2022-11-09T02:36:06.240Z,39.80
2022-11-09T02:39:09.751Z,40.75
2022-11-09T02:42:20.892Z,41.00
2022-11-09T02:45:25.343Z,37.30
2022-11-09T02:48:30.439Z,37.58
2022-11-09T02:51:33.494Z,34.63
2022-11-09T02:54:37.483Z,37.38
2022-11-09T02:57:40.928Z,37.65
2022-11-09T03:00:45.289Z,36.50
2022-11-09T03:03:48.487Z,34.17
2022-11-09T03:06:51.598Z,29.80
2022-11-09T03:09:54.813Z,34.00
2022-11-09T03:12:58.726Z,32.88
2022-11-09T03:16:05.742Z,30.45
2022-11-09T03:19:11.472Z,33.15
2022-11-09T03:22:14.853Z,36.78
2022-11-09T03:25:21.158Z,30.15
2022-11-09T03:28:24.770Z,36.28
2022-11-09T03:31:28.196Z,28.40
2022-11-09T03:34:31.633Z,30.45
2022-11-09T03:37:35.247Z,31.77
2022-11-09T03:40:39.444Z,33.80
2022-11-09T03:43:42.431Z,31.50
2022-11-09T03:46:46.641Z,31.40
2022-11-09T03:49:49.945Z,29.33
2022-11-09T03:52:53.958Z,31.02
2022-11-09T03:55:58.195Z,31.23
2022-11-09T03:59:00.896Z,27.90
2022-11-09T04:02:04.044Z,31.33
2022-11-09T04:05:07.996Z,28.73
2022-11-09T04:08:10.766Z,28.00
2022-11-09T04:11:13.819Z,32.88
2022-11-09T04:14:16.576Z,28.33
2022-11-09T04:17:19.612Z,26.15
2022-11-09T04:20:22.924Z,30.23
2022-11-09T04:23:26.285Z,30.42
2022-11-09T04:26:29.226Z,30.77
2022-11-09T04:29:32.316Z,32.90
2022-11-09T04:32:35.900Z,32.38
2022-11-09T04:35:39.012Z,31.58
2022-11-09T04:38:41.703Z,31.27
2022-11-09T04:41:44.668Z,30.75
2022-11-09T04:44:47.374Z,30.60
2022-11-09T04:47:50.659Z,33.60
2022-11-09T04:50:53.401Z,33.28
2022-11-09T04:53:56.687Z,34.45
2022-11-09T04:56:59.496Z,30.92
2022-11-09T05:00:02.579Z,34.28
2022-11-09T05:03:07.296Z,29.25
2022-11-09T05:06:30.137Z,33.88
2022-11-09T05:09:32.972Z,34.08
2022-11-09T05:12:36.177Z,29.08
2022-11-09T05:15:39.561Z,38.05
2022-11-09T05:18:42.804Z,31.45
2022-11-09T05:21:48.352Z,31.52
2022-11-09T05:24:52.046Z,39.85
2022-11-09T05:27:54.755Z,36.20
2022-11-09T05:30:57.773Z,31.55
2022-11-09T05:34:01.831Z,32.58
2022-11-09T05:37:04.827Z,33.43
2022-11-09T05:40:09.587Z,35.17
2022-11-09T05:43:12.696Z,34.35
2022-11-09T05:46:16.376Z,29.80
2022-11-09T05:49:19.372Z,32.28
2022-11-09T05:52:22.107Z,27.73
2022-11-09T05:55:25.168Z,38.60
2022-11-09T05:58:27.872Z,30.20
2022-11-09T06:01:30.932Z,36.15
2022-11-09T06:04:33.900Z,33.22
2022-11-09T06:07:37.204Z,33.28
2022-11-09T06:10:41.267Z,32.75
2022-11-09T06:13:44.460Z,32.53
2022-11-09T06:16:47.593Z,31.52
2022-11-09T06:19:50.992Z,35.00
2022-11-09T06:23:02.708Z,30.25
2022-11-09T06:26:10.281Z,31.87
2022-11-09T06:29:13.665Z,29.30
2022-11-09T06:32:16.374Z,29.80
2022-11-09T06:35:19.434Z,29.48
2022-11-09T06:38:22.208Z,29.17
2022-11-09T06:41:25.249Z,28.42
2022-11-09T06:44:27.947Z,27.27
2022-11-09T06:47:30.877Z,26.27
2022-11-09T06:50:34.146Z,29.63
2022-11-09T06:53:38.091Z,27.50
2022-11-09T06:56:40.850Z,26.80
2022-11-09T06:59:43.935Z,29.52
2022-11-09T07:02:46.863Z,27.20
2022-11-09T07:05:50.829Z,25.17
2022-11-09T07:08:58.083Z,23.73
2022-11-09T07:12:01.159Z,24.10
2022-11-09T07:15:05.736Z,21.52
2022-11-09T07:18:11.977Z,23.15
2022-11-09T07:21:15.136Z,22.15
2022-11-09T07:24:18.626Z,24.67
2022-11-09T07:27:27.342Z,21.15
2022-11-09T07:30:31.615Z,20.70
2022-11-09T07:33:36.080Z,18.17
2022-11-09T07:36:39.351Z,20.92
2022-11-09T07:39:42.355Z,20.02
2022-11-09T07:42:45.504Z,21.85
2022-11-09T07:45:48.199Z,18.52
2022-11-09T07:48:51.573Z,18.95
2022-11-09T07:51:54.254Z,19.52
2022-11-09T07:54:57.268Z,21.40
2022-11-09T07:58:21.517Z,16.98
2022-11-09T08:01:25.639Z,17.90
2022-11-09T08:04:28.638Z,21.65
2022-11-09T08:07:33.330Z,19.20
2022-11-09T08:10:36.688Z,19.20
2022-11-09T08:13:39.499Z,19.85
2022-11-09T08:16:42.462Z,17.15
2022-11-09T08:19:45.272Z,16.58
2022-11-09T08:22:48.475Z,18.05
2022-11-09T08:25:51.422Z,19.73
2022-11-09T08:28:55.900Z,17.30
2022-11-09T08:31:58.661Z,14.80
2022-11-09T08:35:02.940Z,15.98
2022-11-09T08:38:07.208Z,13.98
2022-11-09T08:41:13.773Z,16.85
2022-11-09T08:44:18.148Z,16.00
2022-11-09T08:47:21.117Z,15.00
2022-11-09T08:50:25.399Z,12.93
2022-11-09T08:53:29.300Z,17.27
2022-11-09T08:56:32.040Z,17.33
2022-11-09T08:59:35.273Z,13.20
2022-11-09T09:02:37.944Z,14.30
2022-11-09T09:05:40.974Z,14.43
2022-11-09T09:08:43.713Z,15.18
2022-11-09T09:11:46.934Z,13.32
2022-11-09T09:14:50.248Z,17.27
2022-11-09T09:17:53.219Z,16.52
2022-11-09T09:20:55.934Z,18.15
2022-11-09T09:24:00.164Z,18.75
2022-11-09T09:27:03.034Z,16.40
2022-11-09T09:30:07.809Z,16.12
2022-11-09T09:33:10.517Z,18.80
2022-11-09T09:36:22.858Z,16.77
2022-11-09T09:39:25.614Z,17.12
2022-11-09T09:42:36.640Z,17.23
2022-11-09T09:45:46.317Z,16.87
2022-11-09T09:48:53.311Z,16.12
2022-11-09T09:52:29.493Z,18.23
2022-11-09T09:55:37.164Z,17.45
2022-11-09T09:58:46.114Z,16.30
2022-11-09T10:01:49.284Z,15.85
2022-11-09T10:04:53.641Z,16.30
2022-11-09T10:08:16.718Z,14.80
2022-11-09T10:11:22.661Z,16.27
2022-11-09T10:14:32.290Z,17.77
2022-11-09T10:17:54.247Z,17.17
2022-11-09T10:21:21.910Z,16.27
2022-11-09T10:24:58.665Z,16.87
2022-11-09T10:28:13.209Z,16.10
2022-11-09T10:31:21.578Z,17.17
2022-11-09T10:34:34.719Z,17.02
2022-11-09T10:37:52.391Z,17.62
2022-11-09T10:41:15.884Z,18.02
2022-11-09T10:44:37.405Z,16.27
2022-11-09T10:47:59.658Z,18.85
2022-11-09T10:51:43.663Z,18.80
2022-11-09T10:55:26.078Z,16.98
2022-11-09T10:58:53.118Z,18.20
2022-11-09T11:02:27.158Z,19.70
2022-11-09T11:06:06.676Z,19.50
2022-11-09T11:09:28.512Z,23.92
2022-11-09T11:12:58.440Z,22.17
2022-11-09T11:16:34.496Z,23.60
2022-11-09T11:20:29.399Z,25.33
2022-11-09T11:24:14.369Z,27.60
2022-11-09T11:27:49.257Z,29.25
2022-11-09T11:31:14.264Z,30.52
2022-11-09T11:34:58.563Z,26.10
2022-11-09T11:38:38.457Z,27.92
2022-11-09T11:42:33.639Z,26.37
2022-11-09T11:46:01.126Z,28.73
2022-11-09T11:50:00.044Z,28.35
2022-11-09T11:53:21.660Z,30.98
2022-11-09T11:56:59.954Z,34.58
2022-11-09T12:00:21.712Z,30.60
2022-11-09T12:03:51.271Z,34.67
2022-11-09T12:07:56.929Z,36.38
2022-11-09T12:11:41.247Z,39.85
2022-11-09T12:15:14.185Z,35.92
2022-11-09T12:18:49.096Z,36.85
2022-11-09T12:22:27.562Z,41.78
2022-11-09T12:25:52.099Z,36.13
2022-11-09T12:29:24.257Z,37.85
2022-11-09T12:33:05.283Z,32.00
2022-11-09T12:36:33.706Z,35.22
2022-11-09T12:39:56.772Z,31.95
2022-11-09T12:43:30.259Z,34.90
2022-11-09T12:46:56.785Z,33.45
2022-11-09T12:50:19.786Z,35.83
2022-11-09T12:53:41.445Z,35.08
2022-11-09T12:57:06.847Z,32.88
2022-11-09T13:00:34.473Z,33.73
2022-11-09T13:03:58.101Z,35.08
2022-11-09T13:07:30.091Z,40.40
2022-11-09T13:11:42.005Z,36.33
2022-11-09T13:15:37.588Z,36.38
2022-11-09T13:18:59.360Z,36.03
2022-11-09T13:22:20.987Z,37.35
2022-11-09T13:25:44.331Z,38.42
2022-11-09T13:29:21.771Z,37.47
2022-11-09T13:33:07.148Z,33.90
2022-11-09T13:36:28.353Z,36.85
2022-11-09T13:39:50.223Z,35.53
2022-11-09T13:43:11.790Z,36.25
2022-11-09T13:46:37.613Z,37.00
2022-11-09T13:50:01.602Z,50.40
2022-11-09T13:53:38.337Z,45.10
2022-11-09T13:57:02.932Z,49.00
2022-11-09T14:00:25.533Z,55.75
2022-11-09T14:03:52.040Z,48.85
2022-11-09T14:07:19.213Z,35.28
2022-11-09T14:11:19.882Z,36.35
2022-11-09T14:14:53.226Z,32.60
2022-11-09T14:18:29.687Z,35.25
2022-11-09T14:21:52.389Z,35.13
2022-11-09T14:25:19.403Z,39.55
2022-11-09T14:28:41.036Z,36.05
2022-11-09T14:32:16.636Z,36.92
2022-11-09T14:35:39.403Z,37.60
2022-11-09T14:39:04.138Z,37.75
2022-11-09T14:42:26.158Z,39.42
2022-11-09T14:45:55.820Z,37.08
2022-11-09T14:49:18.032Z,34.95
2022-11-09T14:52:42.094Z,37.40
2022-11-09T14:56:05.981Z,35.75
2022-11-09T14:59:34.755Z,39.38
2022-11-09T15:02:56.238Z,42.22
2022-11-09T15:06:19.164Z,43.50
2022-11-09T15:09:48.209Z,37.72
2022-11-09T15:13:09.464Z,35.22
2022-11-09T15:16:31.776Z,38.58
2022-11-09T15:20:13.746Z,40.60
2022-11-09T15:23:39.273Z,46.28
2022-11-09T15:27:01.340Z,46.53
2022-11-09T15:30:49.432Z,43.25
2022-11-09T15:34:25.583Z,44.17
2022-11-09T15:37:50.885Z,43.25
2022-11-09T15:41:19.233Z,51.67
2022-11-09T15:44:40.767Z,51.58
2022-11-09T15:48:02.282Z,41.17
2022-11-09T15:51:24.204Z,39.30
2022-11-09T15:54:54.316Z,54.70
2022-11-09T15:58:18.690Z,49.58
2022-11-09T16:01:40.493Z,47.13
2022-11-09T16:05:02.365Z,47.65
2022-11-09T16:08:24.644Z,47.97
2022-11-09T16:11:49.912Z,55.35
2022-11-09T16:15:12.001Z,53.33
2022-11-09T16:18:34.373Z,54.28
2022-11-09T16:21:55.921Z,56.97
2022-11-09T16:25:17.392Z,58.05
2022-11-09T16:28:40.666Z,53.03
2022-11-09T16:32:02.837Z,55.08
2022-11-09T16:35:28.094Z,58.33
2022-11-09T16:38:53.103Z,55.42
2022-11-09T16:42:16.087Z,57.40
2022-11-09T16:45:37.629Z,64.15
2022-11-09T16:49:01.360Z,61.42
2022-11-09T16:52:23.346Z,62.13
2022-11-09T16:55:46.216Z,65.53
2022-11-09T16:59:09.064Z,61.00
2022-11-09T17:02:31.775Z,68.03
2022-11-09T17:05:52.897Z,56.45
2022-11-09T17:09:16.479Z,63.40
2022-11-09T17:12:41.424Z,70.10
2022-11-09T17:16:08.844Z,66.72
2022-11-09T17:19:34.826Z,65.07
2022-11-09T17:22:57.056Z,67.68
2022-11-09T17:26:19.798Z,57.35
2022-11-09T17:29:41.722Z,69.40
2022-11-09T17:33:03.467Z,61.83
2022-11-09T17:36:41.905Z,66.65
2022-11-09T17:40:07.988Z,65.25
2022-11-09T17:43:31.909Z,65.85
2022-11-09T17:46:54.691Z,67.57
2022-11-09T17:50:16.554Z,67.78
2022-11-09T17:53:39.004Z,62.95
2022-11-09T17:57:01.175Z,68.80
2022-11-09T18:00:23.588Z,61.85
2022-11-09T18:03:46.197Z,92.30
2022-11-09T18:07:09.976Z,84.78
2022-11-09T18:10:32.651Z,67.97
2022-11-09T18:13:55.390Z,58.78
2022-11-09T18:17:17.127Z,56.03
2022-11-09T18:20:43.341Z,60.58
2022-11-09T18:24:09.543Z,59.65
2022-11-09T18:27:31.813Z,65.07
2022-11-09T18:31:09.248Z,56.22
2022-11-09T18:34:30.964Z,62.13
2022-11-09T18:37:52.973Z,63.13
2022-11-09T18:41:19.174Z,62.28
2022-11-09T18:44:40.819Z,64.45
2022-11-09T18:48:21.955Z,62.97
2022-11-09T18:51:43.996Z,63.35
2022-11-09T18:55:06.191Z,62.17
2022-11-09T18:58:28.679Z,61.17
2022-11-09T19:01:50.898Z,61.90
2022-11-09T19:05:13.315Z,56.05
2022-11-09T19:08:53.597Z,59.63
2022-11-09T19:12:15.571Z,56.37
2022-11-09T19:15:43.988Z,57.62
2022-11-09T19:19:05.931Z,52.58
2022-11-09T19:22:29.582Z,51.72
2022-11-09T19:25:51.048Z,50.80
2022-11-09T19:29:14.517Z,49.25
2022-11-09T19:32:37.415Z,61.88
2022-11-09T19:36:28.252Z,58.33
2022-11-09T19:39:45.673Z,53.17
2022-11-09T19:43:07.669Z,55.17
2022-11-09T19:46:34.215Z,54.63
2022-11-09T19:49:58.677Z,57.15
2022-11-09T19:53:20.689Z,57.40
2022-11-09T19:56:42.577Z,55.75
2022-11-09T20:00:04.984Z,64.55
2022-11-09T20:03:26.744Z,66.05
2022-11-09T20:06:48.348Z,66.93
2022-11-09T20:10:12.258Z,64.10
2022-11-09T20:13:34.812Z,63.03
2022-11-09T20:17:03.086Z,57.47
2022-11-09T20:20:24.606Z,64.60
2022-11-09T20:23:46.296Z,72.18
2022-11-09T20:27:08.082Z,60.10
2022-11-09T20:30:29.735Z,64.72
2022-11-09T20:33:52.939Z,63.87
2022-11-09T20:37:14.884Z,70.20
2022-11-09T20:40:37.290Z,70.50
2022-11-09T20:44:03.542Z,67.43
2022-11-09T20:47:49.147Z,67.70
2022-11-09T20:51:09.136Z,68.40
2022-11-09T20:54:30.883Z,70.22
2022-11-09T20:57:52.381Z,67.80
2022-11-09T21:01:19.436Z,69.12
2022-11-09T21:04:41.604Z,71.10
2022-11-09T21:08:03.484Z,65.28
2022-11-09T21:11:28.765Z,67.82
2022-11-09T21:14:49.941Z,61.25
2022-11-09T21:18:11.062Z,70.78
2022-11-09T21:21:36.481Z,73.22
2022-11-09T21:25:17.448Z,67.70
2022-11-09T21:28:57.955Z,67.03
2022-11-09T21:32:20.886Z,74.00
2022-11-09T21:35:42.755Z,70.78
2022-11-09T21:39:03.914Z,67.45
2022-11-09T21:42:25.300Z,74.07
2022-11-09T21:45:49.964Z,78.32
2022-11-09T21:49:12.687Z,71.72
2022-11-09T21:52:34.289Z,69.47
2022-11-09T21:56:04.292Z,70.95
2022-11-09T21:59:25.739Z,75.25
2022-11-09T22:02:53.894Z,71.65
2022-11-09T22:06:16.119Z,72.18
2022-11-09T22:10:05.879Z,73.95
2022-11-09T22:13:37.604Z,74.10
2022-11-09T22:16:59.121Z,71.87
2022-11-09T22:20:39.437Z,68.12
2022-11-09T22:24:01.328Z,65.43
2022-11-09T22:27:36.352Z,65.12
2022-11-09T22:31:01.193Z,68.78
2022-11-09T22:34:22.484Z,69.47
2022-11-09T22:37:43.935Z,67.40
2022-11-09T22:41:07.459Z,72.25
2022-11-09T22:44:28.757Z,71.18
2022-11-09T22:47:50.556Z,71.03
2022-11-09T22:51:13.391Z,74.97
2022-11-09T22:54:34.775Z,70.37
2022-11-09T22:57:56.663Z,71.37
2022-11-09T23:01:20.018Z,71.47
2022-11-09T23:04:41.138Z,78.05
2022-11-09T23:08:02.263Z,71.37
2022-11-09T23:11:25.155Z,72.23
2022-11-09T23:15:04.677Z,67.95
2022-11-09T23:18:45.162Z,77.43
2022-11-09T23:22:06.725Z,82.53
2022-11-09T23:25:48.024Z,79.47
2022-11-09T23:29:09.399Z,77.37
2022-11-09T23:32:31.152Z,72.28
2022-11-09T23:35:52.365Z,71.37
2022-11-09T23:39:13.535Z,77.55
2022-11-09T23:42:34.756Z,67.72
2022-11-09T23:45:57.211Z,71.75
2022-11-09T23:49:18.427Z,64.18
2022-11-09T23:52:39.639Z,57.22
2022-11-09T23:56:02.860Z,63.90
2022-11-09T23:59:24.145Z,54.08
